createdAt,value
2022-07-30T00:00:52.225Z,16.71
2022-07-30T00:03:54.075Z,16.69
2022-07-30T00:06:55.915Z,16.69
2022-07-30T00:09:57.957Z,16.68
2022-07-30T00:12:59.840Z,16.68
2022-07-30T00:16:01.715Z,16.67
2022-07-30T00:19:03.689Z,16.67
2022-07-30T00:22:05.390Z,16.67
2022-07-30T00:25:07.590Z,16.68
2022-07-30T00:28:09.494Z,16.68
2022-07-30T00:31:11.471Z,16.69
2022-07-30T00:34:16.324Z,16.70
2022-07-30T00:37:17.977Z,16.68
2022-07-30T00:40:19.773Z,16.68
2022-07-30T00:43:21.649Z,16.70
2022-07-30T00:46:23.611Z,16.71
2022-07-30T00:49:26.256Z,16.72
2022-07-30T00:52:28.313Z,16.71
2022-07-30T00:55:31.255Z,16.71
2022-07-30T00:58:33.166Z,16.71
2022-07-30T01:01:35.468Z,16.70
2022-07-30T01:04:37.247Z,16.70
2022-07-30T01:07:39.194Z,16.70
2022-07-30T01:10:40.976Z,16.69
2022-07-30T01:13:45.898Z,16.68
2022-07-30T01:16:47.712Z,16.65
2022-07-30T01:19:56.194Z,16.63
2022-07-30T01:23:18.663Z,16.62
2022-07-30T01:26:21.070Z,16.61
2022-07-30T01:29:24.641Z,16.61
2022-07-30T01:32:27.595Z,16.61
2022-07-30T01:35:33.490Z,16.60
2022-07-30T01:38:36.754Z,16.59
2022-07-30T01:41:39.492Z,16.60
2022-07-30T01:44:42.070Z,16.61
2022-07-30T01:47:45.607Z,16.62
2022-07-30T01:50:51.668Z,16.61
2022-07-30T01:53:53.850Z,16.60
2022-07-30T01:56:58.097Z,16.61
2022-07-30T02:00:05.238Z,16.63
2022-07-30T02:03:10.679Z,16.64
2022-07-30T02:06:18.373Z,16.62
2022-07-30T02:09:23.385Z,16.64
2022-07-30T02:12:29.350Z,16.68
2022-07-30T02:15:46.431Z,16.71
2022-07-30T02:18:58.798Z,16.73
2022-07-30T02:22:08.520Z,16.74
2022-07-30T02:25:15.004Z,16.74
2022-07-30T02:28:19.034Z,16.74
2022-07-30T02:31:24.864Z,16.73
2022-07-30T02:34:27.669Z,16.73
2022-07-30T02:37:43.186Z,16.72
2022-07-30T02:40:48.533Z,16.73
2022-07-30T02:43:51.449Z,16.75
2022-07-30T02:46:53.858Z,16.74
2022-07-30T02:49:57.117Z,16.72
2022-07-30T02:53:01.101Z,16.73
2022-07-30T02:56:06.042Z,16.75
2022-07-30T02:59:08.753Z,16.77
2022-07-30T03:02:12.228Z,16.79
2022-07-30T03:05:16.642Z,16.82
2022-07-30T03:08:19.836Z,16.83
2022-07-30T03:11:22.513Z,16.84
2022-07-30T03:14:24.478Z,16.85
2022-07-30T03:17:28.870Z,16.87
2022-07-30T03:20:32.126Z,16.88
2022-07-30T03:23:36.168Z,16.88
2022-07-30T03:26:39.815Z,16.90
2022-07-30T03:29:41.796Z,16.92
2022-07-30T03:32:43.836Z,16.94
2022-07-30T03:35:49.087Z,16.95
2022-07-30T03:38:51.484Z,16.97
2022-07-30T03:41:54.846Z,16.99
2022-07-30T03:44:57.632Z,17.02
2022-07-30T03:47:59.411Z,17.03
2022-07-30T03:51:06.854Z,17.02
2022-07-30T03:54:13.568Z,17.02
2022-07-30T03:57:20.232Z,17.03
2022-07-30T04:00:23.931Z,17.05
2022-07-30T04:03:30.772Z,17.06
2022-07-30T04:06:33.237Z,17.08
2022-07-30T04:09:35.279Z,17.10
2022-07-30T04:12:37.293Z,17.12
2022-07-30T04:16:05.905Z,17.15
2022-07-30T04:19:17.325Z,17.18
2022-07-30T04:22:24.468Z,17.21
2022-07-30T04:25:27.258Z,17.23
2022-07-30T04:28:30.007Z,17.25
2022-07-30T04:31:40.690Z,17.27
2022-07-30T04:34:48.203Z,17.28
2022-07-30T04:37:50.006Z,17.26
2022-07-30T04:40:51.913Z,17.25
2022-07-30T04:43:53.731Z,17.26
2022-07-30T04:46:55.507Z,17.26
2022-07-30T04:49:57.718Z,17.30
2022-07-30T04:52:59.680Z,17.35
2022-07-30T04:56:03.069Z,17.38
2022-07-30T04:59:05.582Z,17.42
2022-07-30T05:02:08.068Z,17.46
2022-07-30T05:05:12.011Z,17.52
2022-07-30T05:08:14.240Z,17.59
2022-07-30T05:11:16.416Z,17.65
2022-07-30T05:14:18.172Z,17.73
2022-07-30T05:17:20.666Z,17.78
2022-07-30T05:20:22.443Z,17.83
2022-07-30T05:23:24.921Z,17.88
2022-07-30T05:26:27.475Z,17.91
2022-07-30T05:29:29.800Z,17.95
2022-07-30T05:32:32.170Z,18.06
2022-07-30T05:35:34.082Z,18.14
2022-07-30T05:38:36.421Z,18.16
2022-07-30T05:41:38.196Z,18.24
2022-07-30T05:44:39.975Z,18.36
2022-07-30T05:47:42.285Z,18.41
2022-07-30T05:50:45.683Z,18.46
2022-07-30T05:53:47.410Z,18.48
2022-07-30T05:56:49.727Z,18.50
2022-07-30T05:59:51.501Z,18.59
2022-07-30T06:02:53.215Z,18.68
2022-07-30T06:05:54.956Z,18.76
2022-07-30T06:08:56.655Z,18.81
2022-07-30T06:11:58.395Z,18.88
2022-07-30T06:15:00.184Z,18.95
2022-07-30T06:18:02.461Z,18.99
2022-07-30T06:21:04.458Z,19.01
2022-07-30T06:24:06.759Z,19.09
2022-07-30T06:27:08.720Z,19.14
2022-07-30T06:30:12.056Z,19.22
2022-07-30T06:33:13.798Z,19.24
2022-07-30T06:36:15.666Z,19.22
2022-07-30T06:39:56.141Z,19.25
2022-07-30T06:42:39.522Z,19.31
2022-07-30T06:45:43.615Z,19.34
2022-07-30T06:48:45.476Z,19.28
2022-07-30T06:51:47.248Z,19.21
2022-07-30T06:54:48.916Z,19.27
2022-07-30T06:57:50.653Z,19.31
2022-07-30T07:00:52.366Z,19.31
2022-07-30T07:03:54.288Z,19.35
2022-07-30T07:06:56.056Z,19.40
2022-07-30T07:09:57.900Z,19.59
2022-07-30T07:13:00.777Z,19.79
2022-07-30T07:16:02.795Z,19.92
2022-07-30T07:19:04.616Z,20.08
2022-07-30T07:22:06.353Z,20.13
2022-07-30T07:25:08.675Z,20.15
2022-07-30T07:28:11.944Z,20.23
2022-07-30T07:32:07.350Z,20.23
2022-07-30T07:34:36.599Z,20.34
2022-07-30T07:37:38.344Z,20.42
2022-07-30T07:40:40.855Z,20.58
2022-07-30T07:43:42.585Z,20.67
2022-07-30T07:46:44.395Z,20.70
2022-07-30T07:49:46.134Z,20.74
2022-07-30T07:52:47.922Z,20.82
2022-07-30T07:55:49.683Z,20.88
2022-07-30T07:58:56.677Z,20.92
2022-07-30T08:01:58.625Z,20.91
2022-07-30T08:05:06.428Z,20.93
2022-07-30T08:08:08.246Z,21.01
2022-07-30T08:11:10.095Z,21.09
2022-07-30T08:14:11.910Z,21.11
2022-07-30T08:17:14.223Z,21.12
2022-07-30T08:20:19.243Z,21.10
2022-07-30T08:23:22.582Z,21.01
2022-07-30T08:26:24.261Z,20.99
2022-07-30T08:29:26.041Z,20.95
2022-07-30T08:32:27.806Z,20.88
2022-07-30T08:35:30.958Z,20.79
2022-07-30T08:38:32.731Z,20.67
2022-07-30T08:41:36.558Z,20.63
2022-07-30T08:44:38.800Z,20.60
2022-07-30T08:47:41.366Z,20.52
2022-07-30T08:50:45.233Z,20.49
2022-07-30T08:53:47.305Z,20.54
2022-07-30T08:56:50.301Z,20.62
2022-07-30T09:00:00.080Z,20.65
2022-07-30T09:03:02.940Z,20.70
2022-07-30T09:06:05.725Z,20.71
2022-07-30T09:09:07.618Z,20.87
2022-07-30T09:12:34.896Z,21.01
2022-07-30T09:15:38.982Z,21.06
2022-07-30T09:18:44.632Z,21.08
2022-07-30T09:22:00.835Z,21.14
2022-07-30T09:25:02.759Z,21.18
2022-07-30T09:28:15.843Z,21.22
2022-07-30T09:31:20.609Z,21.46
2022-07-30T09:34:29.795Z,21.63
2022-07-30T09:37:31.487Z,21.72
2022-07-30T09:40:33.984Z,21.74
2022-07-30T09:43:47.566Z,21.86
2022-07-30T09:46:52.026Z,21.94
2022-07-30T09:50:07.135Z,21.98
2022-07-30T09:53:11.877Z,21.98
2022-07-30T09:56:25.702Z,21.91
2022-07-30T09:59:34.996Z,21.83
2022-07-30T10:02:37.830Z,21.76
2022-07-30T10:05:51.724Z,21.76
2022-07-30T10:08:54.953Z,21.84
2022-07-30T10:12:00.207Z,21.89
2022-07-30T10:15:07.392Z,21.95
2022-07-30T10:18:09.229Z,22.05
2022-07-30T10:21:11.611Z,22.21
2022-07-30T10:24:16.742Z,22.39
2022-07-30T10:27:28.964Z,22.50
2022-07-30T10:30:34.107Z,22.52
2022-07-30T10:33:40.147Z,22.60
2022-07-30T10:36:45.053Z,22.72
2022-07-30T10:40:07.742Z,22.79
2022-07-30T10:43:23.567Z,22.93
2022-07-30T10:47:07.657Z,23.13
2022-07-30T10:50:22.334Z,23.45
2022-07-30T10:53:48.612Z,24.08
2022-07-30T10:57:04.243Z,24.88
2022-07-30T11:00:06.028Z,25.55
2022-07-30T11:03:41.080Z,26.23
2022-07-30T11:06:47.664Z,26.69
2022-07-30T11:10:05.280Z,26.62
2022-07-30T11:13:11.428Z,26.92
2022-07-30T11:16:13.303Z,26.97
2022-07-30T11:19:55.046Z,26.58
2022-07-30T11:22:44.589Z,26.67
2022-07-30T11:25:51.000Z,27.15
2022-07-30T11:28:53.979Z,27.39
2022-07-30T11:31:58.641Z,27.99
2022-07-30T11:35:24.501Z,28.65
2022-07-30T11:38:26.344Z,28.69
2022-07-30T11:41:28.058Z,28.60
2022-07-30T11:44:30.270Z,28.73
2022-07-30T11:47:32.273Z,29.12
2022-07-30T11:50:35.439Z,29.47
2022-07-30T11:53:37.303Z,29.68
2022-07-30T11:57:04.088Z,29.85
2022-07-30T12:00:07.158Z,29.59
2022-07-30T12:03:11.711Z,29.34
2022-07-30T12:06:19.942Z,29.14
2022-07-30T12:09:27.556Z,28.82
2022-07-30T12:12:29.653Z,28.59
2022-07-30T12:15:33.317Z,28.04
2022-07-30T12:18:35.431Z,27.75
2022-07-30T12:21:37.591Z,27.54
2022-07-30T12:24:39.321Z,27.14
2022-07-30T12:27:52.035Z,27.07
2022-07-30T12:30:55.441Z,27.05
2022-07-30T12:33:59.140Z,26.75
2022-07-30T12:37:10.263Z,26.61
2022-07-30T12:40:15.284Z,26.70
2022-07-30T12:43:17.623Z,26.86
2022-07-30T12:46:27.227Z,27.06
2022-07-30T12:49:36.795Z,27.19
2022-07-30T12:52:48.965Z,27.15
2022-07-30T12:55:50.638Z,27.06
2022-07-30T12:58:53.644Z,26.73
2022-07-30T13:01:57.505Z,26.53
2022-07-30T13:05:11.125Z,26.41
2022-07-30T13:08:14.013Z,26.59
2022-07-30T13:11:17.218Z,26.58
2022-07-30T13:14:19.494Z,26.57
2022-07-30T13:17:28.343Z,26.76
2022-07-30T13:20:30.504Z,26.95
2022-07-30T13:23:34.712Z,26.94
2022-07-30T13:26:36.799Z,26.80
2022-07-30T13:29:38.544Z,27.18
2022-07-30T13:32:40.342Z,27.88
2022-07-30T13:35:42.482Z,28.10
2022-07-30T13:38:45.605Z,27.99
2022-07-30T13:41:54.029Z,27.72
2022-07-30T13:44:55.786Z,27.43
2022-07-30T13:47:57.486Z,27.32
2022-07-30T13:51:03.764Z,27.30
2022-07-30T13:54:05.536Z,27.21
2022-07-30T13:57:07.375Z,27.11
2022-07-30T14:00:09.771Z,26.92
2022-07-30T14:03:11.965Z,26.74
2022-07-30T14:06:13.724Z,26.70
2022-07-30T14:09:15.629Z,26.72
2022-07-30T14:12:17.394Z,26.71
2022-07-30T14:15:19.081Z,26.77
2022-07-30T14:18:20.903Z,26.62
2022-07-30T14:21:22.669Z,26.39
2022-07-30T14:24:24.386Z,26.20
2022-07-30T14:27:26.550Z,25.98
2022-07-30T14:30:28.398Z,25.77
2022-07-30T14:33:30.112Z,25.58
2022-07-30T14:36:32.774Z,25.20
2022-07-30T14:39:34.617Z,24.80
2022-07-30T14:42:36.603Z,24.45
2022-07-30T14:45:39.301Z,24.14
2022-07-30T14:48:41.127Z,23.84
2022-07-30T14:51:43.002Z,23.56
2022-07-30T14:54:44.817Z,23.26
2022-07-30T14:57:48.056Z,23.03
2022-07-30T15:00:49.754Z,22.83
2022-07-30T15:03:51.794Z,22.57
2022-07-30T15:06:53.462Z,22.35
2022-07-30T15:09:55.387Z,22.20
2022-07-30T15:12:57.394Z,22.04
2022-07-30T15:15:59.813Z,21.90
2022-07-30T15:19:01.593Z,21.79
2022-07-30T15:22:04.303Z,21.65
2022-07-30T15:25:06.824Z,21.54
2022-07-30T15:28:08.900Z,21.42
2022-07-30T15:31:10.856Z,21.27
2022-07-30T15:34:12.883Z,21.08
2022-07-30T15:37:15.761Z,20.82
2022-07-30T15:40:17.635Z,20.54
2022-07-30T15:43:19.361Z,20.26
2022-07-30T15:46:21.123Z,20.03
2022-07-30T15:49:23.082Z,19.86
2022-07-30T15:52:24.862Z,19.73
2022-07-30T15:55:27.186Z,19.63
2022-07-30T15:58:29.059Z,19.56
2022-07-30T16:01:30.892Z,19.48
2022-07-30T16:04:33.200Z,19.46
2022-07-30T16:07:35.025Z,19.45
2022-07-30T16:10:37.927Z,19.43
2022-07-30T16:13:39.603Z,19.42
2022-07-30T16:16:41.656Z,19.43
2022-07-30T16:19:45.065Z,19.46
2022-07-30T16:22:47.548Z,19.49
2022-07-30T16:25:49.380Z,19.52
2022-07-30T16:28:51.156Z,19.56
2022-07-30T16:31:53.056Z,19.61
2022-07-30T16:34:54.952Z,19.62
2022-07-30T16:38:02.805Z,19.64
2022-07-30T16:41:04.720Z,19.66
2022-07-30T16:44:06.532Z,19.68
2022-07-30T16:47:13.616Z,19.69
2022-07-30T16:50:15.943Z,19.70
2022-07-30T16:53:18.502Z,19.70
2022-07-30T16:56:20.299Z,19.70
2022-07-30T16:59:22.798Z,19.69
2022-07-30T17:02:25.507Z,19.70
2022-07-30T17:05:27.400Z,19.69
2022-07-30T17:08:29.147Z,19.68
2022-07-30T17:11:47.273Z,19.67
2022-07-30T17:14:49.880Z,19.66
2022-07-30T17:17:51.959Z,19.65
2022-07-30T17:20:54.289Z,19.64
2022-07-30T17:23:56.442Z,19.62
2022-07-30T17:26:58.297Z,19.60
2022-07-30T17:30:01.523Z,19.58
2022-07-30T17:33:06.295Z,19.54
2022-07-30T17:36:08.822Z,19.52
2022-07-30T17:39:10.520Z,19.47
2022-07-30T17:42:32.296Z,19.43
2022-07-30T17:45:35.771Z,19.38
2022-07-30T17:48:37.504Z,19.34
2022-07-30T17:51:39.826Z,19.31
2022-07-30T17:54:42.749Z,19.28
2022-07-30T17:57:45.619Z,19.25
2022-07-30T18:00:49.042Z,19.22
2022-07-30T18:03:50.983Z,19.18
2022-07-30T18:06:52.844Z,19.13
2022-07-30T18:09:55.102Z,19.08
2022-07-30T18:12:57.556Z,19.04
2022-07-30T18:15:59.464Z,18.98
2022-07-30T18:19:01.384Z,18.95
2022-07-30T18:22:04.550Z,18.92
2022-07-30T18:25:07.615Z,18.89
2022-07-30T18:28:09.729Z,18.85
2022-07-30T18:31:13.514Z,18.80
2022-07-30T18:34:15.556Z,18.76
2022-07-30T18:37:17.392Z,18.74
2022-07-30T18:40:23.650Z,18.71
2022-07-30T18:43:29.569Z,18.69
2022-07-30T18:46:31.514Z,18.67
2022-07-30T18:49:37.833Z,18.65
2022-07-30T18:52:40.398Z,18.62
2022-07-30T18:55:43.640Z,18.59
2022-07-30T18:58:45.924Z,18.54
2022-07-30T19:01:47.803Z,18.51
2022-07-30T19:04:49.687Z,18.49
2022-07-30T19:07:57.316Z,18.47
2022-07-30T19:11:01.075Z,18.46
2022-07-30T19:14:02.831Z,18.44
2022-07-30T19:17:13.652Z,18.43
2022-07-30T19:20:16.212Z,18.40
2022-07-30T19:23:18.748Z,18.34
2022-07-30T19:26:20.579Z,18.26
2022-07-30T19:29:22.331Z,18.18
2022-07-30T19:32:24.881Z,18.09
2022-07-30T19:35:26.645Z,18.03
2022-07-30T19:38:28.938Z,17.99
2022-07-30T19:41:35.781Z,17.94
2022-07-30T19:44:41.179Z,17.90
2022-07-30T19:47:43.299Z,17.87
2022-07-30T19:50:46.520Z,17.84
2022-07-30T19:53:48.998Z,17.81
2022-07-30T19:56:50.965Z,17.77
2022-07-30T20:00:00.104Z,17.73
2022-07-30T20:03:06.047Z,17.67
2022-07-30T20:06:08.417Z,17.63
2022-07-30T20:09:17.069Z,17.58
2022-07-30T20:12:18.928Z,17.55
2022-07-30T20:15:20.700Z,17.53
2022-07-30T20:18:29.128Z,17.51
2022-07-30T20:21:56.511Z,17.51
2022-07-30T20:24:53.652Z,17.53
2022-07-30T20:27:55.583Z,17.55
2022-07-30T20:30:59.752Z,17.57
2022-07-30T20:34:02.262Z,17.59
2022-07-30T20:37:16.601Z,17.62
2022-07-30T20:40:26.637Z,17.64
2022-07-30T20:43:29.250Z,17.66
2022-07-30T20:46:32.134Z,17.68
2022-07-30T20:49:35.799Z,17.69
2022-07-30T20:52:40.473Z,17.71
2022-07-30T20:55:42.949Z,17.73
2022-07-30T20:58:47.307Z,17.75
2022-07-30T21:01:50.129Z,17.79
2022-07-30T21:04:56.703Z,17.82
2022-07-30T21:08:01.552Z,17.84
2022-07-30T21:11:04.026Z,17.87
2022-07-30T21:14:09.938Z,17.90
2022-07-30T21:17:12.347Z,17.93
2022-07-30T21:20:14.276Z,17.95
2022-07-30T21:23:27.186Z,17.96
2022-07-30T21:26:29.404Z,17.96
2022-07-30T21:29:31.807Z,17.97
2022-07-30T21:32:33.718Z,17.96
2022-07-30T21:35:36.750Z,17.93
2022-07-30T21:38:42.940Z,17.87
2022-07-30T21:41:44.630Z,17.81
2022-07-30T21:44:46.432Z,17.76
2022-07-30T21:47:48.364Z,17.71
2022-07-30T21:50:51.072Z,17.68
2022-07-30T21:53:52.739Z,17.64
2022-07-30T21:56:56.345Z,17.59
2022-07-30T21:59:59.921Z,17.56
2022-07-30T22:03:01.786Z,17.52
2022-07-30T22:06:17.794Z,17.48
2022-07-30T22:09:33.466Z,17.44
2022-07-30T22:12:35.941Z,17.40
2022-07-30T22:15:39.026Z,17.36
2022-07-30T22:18:41.281Z,17.33
2022-07-30T22:21:46.963Z,17.30
2022-07-30T22:24:49.499Z,17.26
2022-07-30T22:27:56.905Z,17.24
2022-07-30T22:30:59.103Z,17.20
2022-07-30T22:34:00.846Z,17.16
2022-07-30T22:37:02.696Z,17.13
2022-07-30T22:40:08.288Z,17.10
2022-07-30T22:43:12.779Z,17.06
2022-07-30T22:46:30.556Z,17.02
2022-07-30T22:49:46.389Z,16.99
2022-07-30T22:52:58.623Z,16.95
2022-07-30T22:56:20.310Z,16.92
2022-07-30T22:59:29.134Z,16.89
2022-07-30T23:02:48.802Z,16.87
2022-07-30T23:05:55.131Z,16.85
2022-07-30T23:08:58.958Z,16.83
2022-07-30T23:12:01.973Z,16.83
2022-07-30T23:15:05.932Z,16.80
2022-07-30T23:18:07.653Z,16.75
2022-07-30T23:21:10.070Z,16.69
2022-07-30T23:24:11.964Z,16.62
2022-07-30T23:27:19.699Z,16.57
2022-07-30T23:30:21.486Z,16.54
2022-07-30T23:33:23.228Z,16.52
2022-07-30T23:36:25.130Z,16.51
2022-07-30T23:39:26.952Z,16.49
2022-07-30T23:42:28.910Z,16.48
2022-07-30T23:45:30.723Z,16.48
2022-07-30T23:48:32.462Z,16.45
2022-07-30T23:51:34.213Z,16.40
2022-07-30T23:54:36.840Z,16.37
2022-07-30T23:57:39.490Z,16.35
